Arlington, Mississippi
Current Conditions -  °F | °C
As of 4:35 PM on Friday 24 Oct 2014 (Local Time) from K1R7 Reporting Station
Clear Clear  
Wind Chill: 23°   Ceiling: Unl
Heat Index: 23°   Visibility: 9mi
Dew Point:   Wind: 9mph
Humidity: 38%   Direction: 330°NNW
Pressure: 30.1"   Gusts: NA
Location:  31.4439°N, 90.4692°W
Report Text: K1R7 242135Z AUTO 33008KT 9SM CLR 23/08 A3010 RMK AO2
Loading
Personal Weather Stations






























Interactive Weather Map
Tropical Storm Tracking
New forecast layout! Learn more

10-Day Weather Forecast

Advertisements
Track Severe Weather on mobile